Time;durP1;ratioP1;P1;durP2;ratioP2;P2;SDS_P1;SDS_P2;PMS_P1;PMS_P2;Temp;Humidity;BMP_temperature;BMP_pressure;BME280_temperature;BME280_humidity;BME280_pressure;Samples;Min_cycle;Max_cycle;Signal;HPM_P1;HPM_P2
2021/07/13 00:01:05;;;;;;;;;;;;;;;28.28;43.38;99715.44;5330341;26;35325;-93
2021/07/13 00:03:33;;;;;;;;;;;;;;;29.34;40.86;99723.78;5330368;26;33681;-91
2021/07/13 00:06:01;;;;;;;;;;;;;;;29.44;40.65;99728.97;5330169;26;35124;-93
2021/07/13 00:08:28;;;;;;;;;;;;;;;29.35;40.83;99735.38;5349247;26;33985;-93
2021/07/13 00:10:56;;;;;;;;;;;;;;;29.67;40.11;99734.44;5330369;26;34768;-92
2021/07/13 00:13:24;;;;;;;;;;;;;;;29.37;40.82;99734.19;5329888;26;33790;-92
2021/07/13 00:15:52;;;;;;;;;;;;;;;29.15;41.22;99736.50;5347992;26;34919;-91
2021/07/13 00:18:20;;;;;;;;;;;;;;;29.67;40.06;99733.63;5330421;26;34623;-91
2021/07/13 00:20:47;;;;;;;;;;;;;;;29.65;40.08;99731.12;5330245;26;35413;-91
2021/07/13 00:23:15;;;;;;;;;;;;;;;29.36;40.94;99728.97;5330637;26;33394;-91
2021/07/13 00:25:43;;;;;;;;;;;;;;;28.72;42.26;99740.34;5330377;26;34890;-92
2021/07/13 00:28:16;;;;;;;;;;;;;;;27.97;44.25;99744.56;5331265;26;34912;-91
2021/07/13 00:30:44;;;;;;;;;;;;;;;27.61;45.46;99739.38;5349109;26;35184;-91
2021/07/13 00:33:11;;;;;;;;;;;;;;;28.53;43.14;99744.97;5349110;26;33443;-92
2021/07/13 00:35:39;;;;;;;;;;;;;;;28.11;43.97;99735.97;5329876;26;34616;-93
2021/07/13 00:38:06;;;;;;;;;;;;;;;28.42;42.79;99730.03;5329966;26;34581;-91
2021/07/13 00:40:33;;;;;;;;;;;;;;;28.81;41.68;99720.56;5349291;26;34676;-93
2021/07/13 00:43:01;;;;;;;;;;;;;;;28.13;43.03;99720.59;5329648;26;34294;-92
2021/07/13 00:45:29;;;;;;;;;;;;;;;28.68;41.81;99726.44;5329762;26;34696;-92
2021/07/13 00:47:56;;;;;;;;;;;;;;;28.53;42.24;99707.44;5329897;26;34651;-91
2021/07/13 00:50:24;;;;;;;;;;;;;;;28.73;41.98;99717.91;5329701;26;35676;-91
2021/07/13 00:52:57;;;;;;;;;;;;;;;28.61;42.28;99714.66;5330730;26;33054;-92
2021/07/13 00:55:25;;;;;;;;;;;;;;;28.78;41.80;99702.97;5330727;26;33077;-92
2021/07/13 00:57:54;;;;;;;;;;;;;;;29.06;41.09;99710.69;5349625;26;34412;-91
2021/07/13 01:00:22;;;;;;;;;;;;;;;29.13;41.05;99710.84;5348311;26;34035;-92
2021/07/13 01:02:55;;;;;;;;;;;;;;;28.54;42.31;99717.16;5330425;26;32220;-91
2021/07/13 01:05:24;;;;;;;;;;;;;;;29.27;40.44;99720.94;5330125;26;34524;-91
2021/07/13 01:08:10;;;;;;;;;;;;;;;28.74;41.51;99722.25;5344349;26;34759;-91
2021/07/13 01:10:46;;;;;;;;;;;;;;;28.59;41.64;99722.88;5346436;26;34494;-91
2021/07/13 01:13:22;;;;;;;;;;;;;;;28.78;41.07;99721.75;5348335;26;34548;-92
2021/07/13 01:16:01;;;;;;;;;;;;;;;29.15;40.16;99719.59;5338991;26;34359;-92
2021/07/13 01:18:31;;;;;;;;;;;;;;;29.02;40.42;99708.53;5329996;26;35140;-92
2021/07/13 01:21:17;;;;;;;;;;;;;;;28.54;41.49;99717.16;5329770;26;35369;-93
2021/07/13 01:24:03;;;;;;;;;;;;;;;28.28;41.93;99711.91;5348546;26;34228;-93
2021/07/13 01:26:55;;;;;;;;;;;;;;;28.09;42.47;99707.69;5348589;26;34725;-91
2021/07/13 01:29:22;;;;;;;;;;;;;;;28.21;42.07;99711.72;5315923;26;34699;-92
2021/07/13 01:31:50;;;;;;;;;;;;;;;28.36;41.85;99703.91;5329528;26;33118;-91
2021/07/13 01:34:21;;;;;;;;;;;;;;;29.08;40.15;99703.31;5330691;26;33953;-92
2021/07/13 01:36:51;;;;;;;;;;;;;;;29.05;40.18;99695.63;5329754;26;35800;-92
2021/07/13 01:39:19;;;;;;;;;;;;;;;28.85;40.68;99696.97;5330075;26;34898;-92
2021/07/13 01:41:47;;;;;;;;;;;;;;;28.49;41.45;99695.38;5329490;26;34502;-91
2021/07/13 01:44:23;;;;;;;;;;;;;;;28.20;42.15;99688.66;5331680;26;34315;-93
2021/07/13 01:46:52;;;;;;;;;;;;;;;27.87;42.79;99695.66;5330428;26;34195;-91
2021/07/13 01:49:21;;;;;;;;;;;;;;;27.52;43.67;99695.66;5329869;26;35939;-90
2021/07/13 01:51:56;;;;;;;;;;;;;;;27.89;42.92;99697.19;5331619;26;34751;-91
2021/07/13 01:54:26;;;;;;;;;;;;;;;27.66;43.39;99695.06;5330124;26;33669;-91
2021/07/13 01:56:58;;;;;;;;;;;;;;;28.15;42.28;99686.44;5330210;26;34912;-93
2021/07/13 01:59:26;;;;;;;;;;;;;;;28.23;42.10;99687.47;5330225;26;35648;-91
2021/07/13 02:02:01;;;;;;;;;;;;;;;28.32;41.88;99686.47;5331191;26;35372;-93
2021/07/13 02:04:29;;;;;;;;;;;;;;;27.94;42.97;99688.69;5329390;26;34002;-91
2021/07/13 02:06:57;;;;;;;;;;;;;;;27.55;43.88;99694.50;5330160;26;35801;-91
2021/07/13 02:09:25;;;;;;;;;;;;;;;27.40;44.13;99691.59;5329214;26;35580;-92
2021/07/13 02:11:53;;;;;;;;;;;;;;;28.11;42.54;99687.75;5348063;26;34855;-91
2021/07/13 02:14:22;;;;;;;;;;;;;;;28.47;41.72;99689.37;5367505;26;33450;-92
2021/07/13 02:16:51;;;;;;;;;;;;;;;28.21;41.89;99689.47;5339320;26;35223;-90
2021/07/13 02:19:21;;;;;;;;;;;;;;;27.99;42.19;99692.53;5330133;26;35769;-92
2021/07/13 02:21:48;;;;;;;;;;;;;;;27.98;42.14;99695.38;5330153;26;34741;-92
2021/07/13 02:24:17;;;;;;;;;;;;;;;28.03;41.89;99689.56;5329996;26;33886;-94
2021/07/13 02:26:51;;;;;;;;;;;;;;;28.07;41.77;99688.28;5329257;26;34538;-92
2021/07/13 02:29:38;;;;;;;;;;;;;;;28.29;41.19;99682.31;5329179;26;34871;-93
2021/07/13 02:32:07;;;;;;;;;;;;;;;28.29;41.21;99682.31;5347477;26;34307;-90
2021/07/13 02:34:38;;;;;;;;;;;;;;;27.91;42.42;99684.50;5330082;26;33888;-92
2021/07/13 02:37:05;;;;;;;;;;;;;;;27.55;44.13;99695.38;5329514;26;35772;-90
2021/07/13 02:39:33;;;;;;;;;;;;;;;27.91;43.35;99695.19;5348915;26;35180;-91
2021/07/13 02:42:14;;;;;;;;;;;;;;;27.59;43.64;99690.50;5333393;26;35253;-91
2021/07/13 02:44:41;;;;;;;;;;;;;;;27.79;43.19;99691.97;5347552;26;32485;-92
2021/07/13 02:47:11;;;;;;;;;;;;;;;28.19;42.22;99689.63;5336561;26;33731;-92
2021/07/13 02:49:44;;;;;;;;;;;;;;;27.37;44.30;99689.22;5334645;26;34953;-92
2021/07/13 02:52:17;;;;;;;;;;;;;;;28.24;42.18;99694.50;5333951;26;34238;-91
2021/07/13 02:54:46;;;;;;;;;;;;;;;27.74;42.20;99696.13;5354638;26;33946;-92
2021/07/13 02:57:14;;;;;;;;;;;;;;;27.98;41.41;99696.22;5350529;26;35217;-92
2021/07/13 02:59:41;;;;;;;;;;;;;;;27.90;41.14;99695.38;5329632;26;35016;-92
2021/07/13 03:02:09;;;;;;;;;;;;;;;27.82;41.32;99701.53;5329086;26;34750;-92
2021/07/13 03:04:40;;;;;;;;;;;;;;;27.78;41.62;99700.16;5330457;26;33819;-92
2021/07/13 03:07:08;;;;;;;;;;;;;;;26.96;43.83;99703.97;5329412;26;34694;-92
2021/07/13 03:09:35;;;;;;;;;;;;;;;27.82;42.08;99698.84;5348698;26;34032;-91
2021/07/13 03:12:07;;;;;;;;;;;;;;;27.59;42.62;99696.72;5330030;26;34389;-91
2021/07/13 03:14:34;;;;;;;;;;;;;;;28.05;41.42;99692.94;5334249;26;34088;-92
2021/07/13 03:17:02;;;;;;;;;;;;;;;27.41;42.57;99694.09;5331258;26;34692;-92
2021/07/13 03:19:31;;;;;;;;;;;;;;;26.99;43.56;99687.59;5331291;26;34929;-92
2021/07/13 03:21:59;;;;;;;;;;;;;;;27.49;42.80;99687.97;5330319;26;35243;-91
2021/07/13 03:24:26;;;;;;;;;;;;;;;27.25;43.42;99685.94;5330656;26;32102;-91
2021/07/13 03:26:55;;;;;;;;;;;;;;;27.29;43.22;99681.97;5331040;26;34640;-92
2021/07/13 03:29:22;;;;;;;;;;;;;;;27.37;43.12;99682.03;5330622;26;33180;-91
2021/07/13 03:31:49;;;;;;;;;;;;;;;27.46;43.06;99675.75;5349935;26;34386;-90
2021/07/13 03:34:18;;;;;;;;;;;;;;;27.62;42.88;99676.84;5330824;26;33617;-90
2021/07/13 03:36:47;;;;;;;;;;;;;;;27.48;43.23;99678.25;5330806;26;34767;-91
2021/07/13 03:39:15;;;;;;;;;;;;;;;27.69;42.72;99677.03;5349199;26;35421;-92
2021/07/13 03:41:44;;;;;;;;;;;;;;;27.70;42.33;99676.03;5330544;26;32994;-90
2021/07/13 03:44:12;;;;;;;;;;;;;;;28.35;40.38;99672.75;5349318;26;34116;-92
2021/07/13 03:46:39;;;;;;;;;;;;;;;28.01;40.98;99671.00;5349788;26;34461;-93
2021/07/13 03:49:08;;;;;;;;;;;;;;;28.47;40.12;99675.97;5331242;26;34993;-93
2021/07/13 03:51:45;;;;;;;;;;;;;;;28.82;39.50;99679.38;5330561;26;34930;-92
2021/07/13 03:54:18;;;;;;;;;;;;;;;28.44;40.29;99677.12;5351474;26;33235;-92
2021/07/13 03:56:46;;;;;;;;;;;;;;;28.20;41.18;99679.75;5329982;26;35199;-93
2021/07/13 03:59:14;;;;;;;;;;;;;;;27.79;42.29;99686.63;5330191;26;33234;-92
2021/07/13 04:01:41;;;;;;;;;;;;;;;27.76;42.78;99680.72;5330076;26;33267;-91
2021/07/13 04:04:10;;;;;;;;;;;;;;;27.96;42.13;99675.97;5331090;26;34030;-92
2021/07/13 04:06:38;;;;;;;;;;;;;;;27.59;43.23;99686.03;5348680;26;34478;-90
2021/07/13 04:09:06;;;;;;;;;;;;;;;28.36;41.54;99685.16;5330733;26;35713;-91
2021/07/13 04:11:34;;;;;;;;;;;;;;;27.93;42.63;99685.16;5330164;26;34626;-91
2021/07/13 04:14:02;;;;;;;;;;;;;;;28.48;41.62;99689.19;5349555;26;32375;-90
2021/07/13 04:16:31;;;;;;;;;;;;;;;28.91;40.76;99686.41;5330352;26;35049;-91
2021/07/13 04:18:59;;;;;;;;;;;;;;;28.55;41.78;99686.69;5330262;26;34665;-92
2021/07/13 04:21:27;;;;;;;;;;;;;;;28.64;41.88;99693.78;5330571;26;34838;-91
2021/07/13 04:23:54;;;;;;;;;;;;;;;28.85;41.88;99691.59;5330193;26;33811;-92
2021/07/13 04:26:23;;;;;;;;;;;;;;;28.63;42.92;99700.09;5329760;26;34390;-92
2021/07/13 04:28:51;;;;;;;;;;;;;;;29.03;42.48;99694.13;5329530;26;35632;-91
2021/07/13 04:31:18;;;;;;;;;;;;;;;29.45;41.88;99695.75;5330478;26;35278;-91
2021/07/13 04:33:47;;;;;;;;;;;;;;;29.75;41.75;99696.00;5338196;26;33668;-93
2021/07/13 04:36:15;;;;;;;;;;;;;;;29.94;41.76;99700.16;5346941;26;33779;-91
2021/07/13 04:38:42;;;;;;;;;;;;;;;29.83;42.63;99701.34;5336981;26;35488;-91
2021/07/13 04:41:10;;;;;;;;;;;;;;;29.47;44.60;99691.88;5359187;26;33296;-92
2021/07/13 04:43:37;;;;;;;;;;;;;;;29.80;43.81;99701.69;5332299;26;33613;-93
2021/07/13 04:46:04;;;;;;;;;;;;;;;29.87;44.05;99697.31;5331248;26;33090;-91
2021/07/13 04:48:33;;;;;;;;;;;;;;;30.38;42.89;99690.69;5331456;26;33203;-92
2021/07/13 04:51:01;;;;;;;;;;;;;;;30.59;42.77;99690.06;5348611;26;34851;-90
2021/07/13 04:53:28;;;;;;;;;;;;;;;30.75;42.61;99692.62;5349196;26;33617;-90
2021/07/13 04:55:58;;;;;;;;;;;;;;;30.58;43.27;99693.78;5334401;26;34510;-93
2021/07/13 04:58:45;;;;;;;;;;;;;;;30.20;44.30;99686.44;5249698;27;33932;-86
2021/07/13 05:01:13;;;;;;;;;;;;;;;30.01;44.74;99681.47;5256595;27;34724;-86
2021/07/13 05:03:40;;;;;;;;;;;;;;;30.02;44.87;99688.53;5282037;27;34787;-86
2021/07/13 05:06:08;;;;;;;;;;;;;;;30.23;44.53;99685.25;5300383;27;35299;-86
2021/07/13 05:08:36;;;;;;;;;;;;;;;29.64;45.60;99692.69;5300225;27;34626;-88
2021/07/13 05:11:04;;;;;;;;;;;;;;;29.43;46.66;99692.41;5281441;27;35160;-87
2021/07/13 05:13:31;;;;;;;;;;;;;;;29.76;45.97;99697.69;5298897;27;34365;-87
2021/07/13 05:15:59;;;;;;;;;;;;;;;30.22;44.86;99699.69;5299930;27;34245;-87
2021/07/13 05:18:27;;;;;;;;;;;;;;;30.25;44.21;99697.47;5300650;27;33967;-87
2021/07/13 05:21:00;;;;;;;;;;;;;;;29.98;44.75;99696.97;5300348;27;34937;-86
2021/07/13 05:23:28;;;;;;;;;;;;;;;29.94;44.81;99690.25;5281816;27;36553;-86
2021/07/13 05:25:55;;;;;;;;;;;;;;;29.80;44.89;99689.09;5281688;27;34676;-86
2021/07/13 05:28:22;;;;;;;;;;;;;;;30.89;42.36;99685.62;5299511;27;33595;-88
2021/07/13 05:30:55;;;;;;;;;;;;;;;30.62;42.68;99685.19;5282894;27;33736;-86
2021/07/13 05:33:23;;;;;;;;;;;;;;;30.73;42.62;99685.78;5300225;27;33650;-87
2021/07/13 05:35:51;;;;;;;;;;;;;;;30.51;42.92;99676.69;5281689;27;33610;-86
2021/07/13 05:38:18;;;;;;;;;;;;;;;30.72;42.34;99676.88;5319519;27;34053;-87
2021/07/13 05:40:45;;;;;;;;;;;;;;;31.08;41.49;99686.19;5300171;27;34537;-87
2021/07/13 05:43:14;;;;;;;;;;;;;;;30.95;41.49;99689.44;5249579;27;869039;-87
2021/07/13 05:45:42;;;;;;;;;;;;;;;30.74;42.10;99688.28;5300324;27;34433;-87
2021/07/13 05:48:10;;;;;;;;;;;;;;;30.43;42.83;99688.31;5319104;27;34782;-86
2021/07/13 05:50:37;;;;;;;;;;;;;;;31.18;41.02;99688.59;5318712;27;34397;-87
2021/07/13 05:53:06;;;;;;;;;;;;;;;31.42;40.57;99693.75;5317970;27;33984;-87
2021/07/13 05:55:35;;;;;;;;;;;;;;;31.09;41.20;99693.25;5299393;26;34393;-88
2021/07/13 05:58:02;;;;;;;;;;;;;;;31.21;40.83;99694.47;5312853;27;34498;-86
2021/07/13 06:00:30;;;;;;;;;;;;;;;31.77;39.62;99701.28;5282403;27;34058;-87
2021/07/13 06:02:57;;;;;;;;;;;;;;;32.16;38.97;99692.06;5301001;27;33536;-87
2021/07/13 06:05:25;;;;;;;;;;;;;;;32.30;38.63;99701.97;5318628;27;34379;-87
2021/07/13 06:07:52;;;;;;;;;;;;;;;31.87;39.64;99699.16;5318685;27;35092;-87
2021/07/13 06:10:20;;;;;;;;;;;;;;;32.45;38.43;99693.00;5282342;27;33086;-87
2021/07/13 06:12:47;;;;;;;;;;;;;;;32.91;37.52;99695.31;5320121;27;34094;-85
2021/07/13 06:15:15;;;;;;;;;;;;;;;32.68;37.63;99705.44;5300572;27;33899;-86
2021/07/13 06:17:43;;;;;;;;;;;;;;;32.50;37.84;99700.53;5302043;27;34440;-86
2021/07/13 06:20:12;;;;;;;;;;;;;;;31.83;39.52;99702.41;5322143;27;34921;-88
2021/07/13 06:22:40;;;;;;;;;;;;;;;32.15;38.90;99701.16;5318893;27;34145;-88
2021/07/13 06:25:07;;;;;;;;;;;;;;;32.05;39.15;99695.22;5300043;27;33096;-87
2021/07/13 06:27:35;;;;;;;;;;;;;;;32.33;38.43;99697.22;5300078;27;33905;-89
2021/07/13 06:30:06;;;;;;;;;;;;;;;32.62;37.72;99699.81;5301785;27;34087;-90
2021/07/13 06:32:33;;;;;;;;;;;;;;;32.94;37.31;99697.63;5319954;27;33388;-87
2021/07/13 06:35:01;;;;;;;;;;;;;;;33.39;36.34;99688.44;5300039;27;33053;-90
2021/07/13 06:37:28;;;;;;;;;;;;;;;33.13;36.94;99697.97;5300523;27;33621;-87
2021/07/13 06:39:56;;;;;;;;;;;;;;;33.27;36.73;99693.56;5299895;27;35085;-88
2021/07/13 06:42:23;;;;;;;;;;;;;;;33.43;36.25;99687.84;5299636;27;33764;-89
2021/07/13 06:44:52;;;;;;;;;;;;;;;33.52;36.18;99679.56;5299766;27;34964;-89
2021/07/13 06:47:20;;;;;;;;;;;;;;;33.37;36.42;99677.00;5318452;27;34461;-89
2021/07/13 06:49:47;;;;;;;;;;;;;;;33.70;35.74;99670.94;5299153;27;33591;-88
2021/07/13 06:52:15;;;;;;;;;;;;;;;33.49;36.06;99667.31;5301165;27;34221;-87
2021/07/13 06:54:42;;;;;;;;;;;;;;;33.75;35.83;99674.72;5300049;27;34048;-89
2021/07/13 06:57:10;;;;;;;;;;;;;;;33.87;35.38;99672.31;5299654;27;33308;-88
2021/07/13 06:59:38;;;;;;;;;;;;;;;33.74;35.54;99678.44;5318193;27;34435;-86
2021/07/13 07:02:05;;;;;;;;;;;;;;;34.02;35.09;99677.53;5281978;27;33414;-89
2021/07/13 07:04:33;;;;;;;;;;;;;;;32.94;37.10;99677.91;5280953;27;33180;-87
2021/07/13 07:07:00;;;;;;;;;;;;;;;33.38;36.24;99684.91;5299480;27;33177;-88
2021/07/13 07:09:27;;;;;;;;;;;;;;;33.56;35.67;99683.53;5319130;27;34772;-88
2021/07/13 07:11:55;;;;;;;;;;;;;;;32.86;37.09;99676.19;5299735;27;32530;-87
2021/07/13 07:14:22;;;;;;;;;;;;;;;33.62;35.73;99672.78;5299353;27;33237;-87
2021/07/13 07:16:50;;;;;;;;;;;;;;;33.49;35.76;99675.41;5299947;27;34497;-88
2021/07/13 07:19:17;;;;;;;;;;;;;;;33.54;35.68;99675.63;5317793;27;34963;-88
2021/07/13 07:21:44;;;;;;;;;;;;;;;33.84;34.65;99674.56;5299765;27;32452;-89
2021/07/13 07:24:13;;;;;;;;;;;;;;;33.80;34.64;99671.44;5299530;27;33522;-88
2021/07/13 07:26:40;;;;;;;;;;;;;;;34.04;34.16;99670.09;5300017;27;33687;-89
2021/07/13 07:29:07;;;;;;;;;;;;;;;34.00;34.38;99670.66;5281134;27;33605;-88
2021/07/13 07:31:35;;;;;;;;;;;;;;;35.15;32.06;99667.13;5319746;27;33520;-89
2021/07/13 07:34:03;;;;;;;;;;;;;;;34.97;32.35;99667.75;5299865;27;33932;-88
2021/07/13 07:36:31;;;;;;;;;;;;;;;35.21;32.01;99671.66;5298643;27;33964;-88
2021/07/13 07:38:59;;;;;;;;;;;;;;;35.18;31.97;99664.84;5299172;27;34305;-87
2021/07/13 07:41:26;;;;;;;;;;;;;;;35.85;30.40;99672.00;5281517;27;33896;-89
2021/07/13 07:43:54;;;;;;;;;;;;;;;35.39;30.96;99668.34;5298833;27;34342;-87
2021/07/13 07:46:22;;;;;;;;;;;;;;;35.43;30.51;99665.03;5317659;27;34277;-88
2021/07/13 07:48:49;;;;;;;;;;;;;;;36.18;29.18;99665.53;5318114;27;34698;-87
2021/07/13 07:51:18;;;;;;;;;;;;;;;35.43;30.84;99669.59;5300504;27;32544;-87
2021/07/13 07:53:46;;;;;;;;;;;;;;;35.48;30.61;99668.97;5304458;27;35067;-86
2021/07/13 07:56:13;;;;;;;;;;;;;;;35.75;29.78;99661.56;5313595;27;35366;-87
2021/07/13 07:58:41;;;;;;;;;;;;;;;35.37;30.47;99673.13;5316706;27;34313;-87
2021/07/13 08:01:09;;;;;;;;;;;;;;;35.87;29.59;99659.84;5320170;26;34534;-87
2021/07/13 08:03:37;;;;;;;;;;;;;;;35.53;30.21;99655.59;5320213;27;34365;-87
2021/07/13 08:06:04;;;;;;;;;;;;;;;36.00;29.22;99660.88;5299873;27;33272;-88
2021/07/13 08:08:32;;;;;;;;;;;;;;;36.54;28.35;99656.78;5318739;27;34760;-87
2021/07/13 08:10:59;;;;;;;;;;;;;;;36.29;28.71;99651.31;5318569;27;34066;-88
2021/07/13 08:13:26;;;;;;;;;;;;;;;36.07;28.78;99650.81;5300488;27;33656;-88
2021/07/13 08:15:54;;;;;;;;;;;;;;;35.66;29.31;99652.84;5300611;27;34257;-87
2021/07/13 08:18:24;;;;;;;;;;;;;;;35.38;29.95;99653.13;5300712;27;34496;-87
2021/07/13 08:20:51;;;;;;;;;;;;;;;35.48;29.80;99648.13;5299992;27;32350;-89
2021/07/13 08:23:19;;;;;;;;;;;;;;;36.53;28.23;99643.47;5318839;27;34021;-88
2021/07/13 08:25:46;;;;;;;;;;;;;;;36.65;27.86;99638.16;5318831;27;34340;-87
2021/07/13 08:28:14;;;;;;;;;;;;;;;37.00;27.29;99638.47;5281978;27;35647;-87
2021/07/13 08:30:41;;;;;;;;;;;;;;;37.22;26.73;99630.72;5318268;27;33480;-88
2021/07/13 08:33:08;;;;;;;;;;;;;;;36.50;27.51;99638.44;5318447;27;33872;-88
2021/07/13 08:35:35;;;;;;;;;;;;;;;36.90;27.19;99630.03;5318589;27;33653;-87
2021/07/13 08:38:03;;;;;;;;;;;;;;;36.03;28.44;99642.25;5320060;27;35062;-86
2021/07/13 08:40:32;;;;;;;;;;;;;;;37.05;27.00;99637.81;5318493;27;33135;-88
2021/07/13 08:42:59;;;;;;;;;;;;;;;36.64;27.47;99641.91;5281841;27;34150;-89
2021/07/13 08:45:27;;;;;;;;;;;;;;;36.92;26.87;99628.75;5300052;27;34740;-87
2021/07/13 08:47:55;;;;;;;;;;;;;;;36.84;27.21;99628.19;5299581;27;35391;-87
2021/07/13 08:50:22;;;;;;;;;;;;;;;36.51;27.46;99632.81;5299856;27;32732;-86
2021/07/13 08:52:49;;;;;;;;;;;;;;;35.97;28.53;99628.75;5300539;27;33863;-88
2021/07/13 08:55:17;;;;;;;;;;;;;;;36.79;27.30;99617.97;5300253;27;34484;-87
2021/07/13 08:57:44;;;;;;;;;;;;;;;37.07;26.86;99611.25;5282214;27;35036;-88
2021/07/13 09:00:14;;;;;;;;;;;;;;;37.80;25.82;99617.75;5301170;26;34464;-87
2021/07/13 09:03:01;;;;;;;;;;;;;;;38.02;25.26;99619.97;5299418;27;33070;-88
2021/07/13 09:05:29;;;;;;;;;;;;;;;37.97;25.14;99614.41;5301017;27;34754;-87
2021/07/13 09:07:57;;;;;;;;;;;;;;;38.52;24.31;99621.53;5300387;27;34243;-88
2021/07/13 09:10:24;;;;;;;;;;;;;;;38.21;24.73;99621.56;5318379;27;33567;-88
2021/07/13 09:12:52;;;;;;;;;;;;;;;38.43;24.12;99612.91;5281637;27;33440;-88
2021/07/13 09:15:20;;;;;;;;;;;;;;;38.23;24.21;99605.84;5300263;27;34347;-89
2021/07/13 09:17:49;;;;;;;;;;;;;;;38.40;23.90;99610.63;5299608;27;33822;-88
2021/07/13 09:20:22;;;;;;;;;;;;;;;39.03;22.81;99613.78;5299996;27;31769;-89
2021/07/13 09:23:00;;;;;;;;;;;;;;;38.21;23.81;99623.47;5300370;27;33921;-89
2021/07/13 09:25:29;;;;;;;;;;;;;;;38.74;22.93;99616.38;5318371;27;33941;-87
2021/07/13 09:28:26;;;;;;;;;;;;;;;38.80;22.54;99611.87;5320032;27;35036;-87
2021/07/13 09:30:55;;;;;;;;;;;;;;;38.13;23.75;99616.44;5290329;27;35228;-88
2021/07/13 09:33:23;;;;;;;;;;;;;;;37.83;24.15;99614.59;5318284;27;33902;-88
2021/07/13 09:35:57;;;;;;;;;;;;;;;37.81;24.17;99611.25;5318532;27;34489;-88
2021/07/13 09:38:25;;;;;;;;;;;;;;;37.84;24.20;99624.41;5320624;27;34241;-86
2021/07/13 09:41:03;;;;;;;;;;;;;;;38.17;23.84;99617.66;5281588;27;35469;-88
2021/07/13 09:43:38;;;;;;;;;;;;;;;38.51;23.51;99618.00;5281797;27;35346;-88
2021/07/13 09:46:26;;;;;;;;;;;;;;;39.12;22.67;99622.41;5299961;27;35332;-87
2021/07/13 09:49:06;;;;;;;;;;;;;;;39.33;22.10;99620.97;5298265;27;34773;-87
2021/07/13 09:51:34;;;;;;;;;;;;;;;39.26;22.19;99621.09;5299287;27;35110;-86
2021/07/13 09:54:28;;;;;;;;;;;;;;;38.93;22.76;99617.09;5318150;27;34253;-88
2021/07/13 09:56:55;;;;;;;;;;;;;;;39.40;21.83;99624.41;5318343;26;34019;-87
2021/07/13 09:59:23;;;;;;;;;;;;;;;39.97;21.18;99615.47;5281135;27;35694;-87
2021/07/13 10:01:50;;;;;;;;;;;;;;;39.79;21.43;99621.13;5298759;27;33419;-87
2021/07/13 10:04:18;;;;;;;;;;;;;;;40.12;21.01;99619.56;5300297;27;34182;-88
2021/07/13 10:06:46;;;;;;;;;;;;;;;39.98;21.45;99624.47;5299933;27;34549;-87
2021/07/13 10:09:14;;;;;;;;;;;;;;;39.08;22.26;99625.59;5282395;27;34689;-87
2021/07/13 10:11:42;;;;;;;;;;;;;;;38.80;22.59;99614.59;5299634;27;33945;-86
2021/07/13 10:14:09;;;;;;;;;;;;;;;38.53;22.49;99615.88;5282051;27;35979;-87
2021/07/13 10:16:37;;;;;;;;;;;;;;;37.20;24.42;99623.84;5318007;27;34444;-87
2021/07/13 10:19:06;;;;;;;;;;;;;;;37.95;23.29;99611.91;5317262;27;34356;-88
2021/07/13 10:21:34;;;;;;;;;;;;;;;37.06;24.43;99623.19;5281557;27;33339;-87
2021/07/13 10:24:02;;;;;;;;;;;;;;;38.23;23.03;99605.03;5298377;27;35124;-88
2021/07/13 10:26:44;;;;;;;;;;;;;;;39.37;21.53;99603.06;5300318;27;34133;-88
2021/07/13 10:29:30;;;;;;;;;;;;;;;39.39;21.51;99609.12;5299549;27;35977;-87
2021/07/13 10:32:21;;;;;;;;;;;;;;;39.56;21.28;99603.75;5317668;27;33604;-87
2021/07/13 10:34:48;;;;;;;;;;;;;;;38.66;22.05;99600.38;5299730;27;35253;-87
2021/07/13 10:37:23;;;;;;;;;;;;;;;38.87;21.91;99607.97;5299447;27;35583;-86
2021/07/13 10:39:51;;;;;;;;;;;;;;;38.68;22.46;99604.53;5299583;27;34161;-87
2021/07/13 10:42:38;;;;;;;;;;;;;;;37.76;23.78;99605.66;5281653;27;32953;-87
2021/07/13 10:45:18;;;;;;;;;;;;;;;38.12;22.79;99601.22;5317977;27;34653;-88
2021/07/13 10:47:59;;;;;;;;;;;;;;;38.71;21.51;99605.97;5318162;27;35232;-87
2021/07/13 10:50:29;;;;;;;;;;;;;;;38.25;22.01;99608.34;5299574;27;34492;-88
2021/07/13 10:53:18;;;;;;;;;;;;;;;39.23;20.80;99592.44;5301856;27;33795;-87
2021/07/13 10:55:47;;;;;;;;;;;;;;;38.55;21.69;99600.13;5295616;26;34045;-84
2021/07/13 10:58:15;;;;;;;;;;;;;;;39.28;20.62;99596.34;5318108;27;34612;-87
2021/07/13 11:00:50;;;;;;;;;;;;;;;38.63;21.58;99598.13;5317835;26;34270;-87
2021/07/13 11:03:27;;;;;;;;;;;;;;;38.67;21.26;99593.88;5299867;27;34254;-87
2021/07/13 11:05:58;;;;;;;;;;;;;;;39.33;20.59;99597.31;5318240;27;33474;-87
2021/07/13 11:08:45;;;;;;;;;;;;;;;39.49;20.57;99590.25;5300919;27;35895;-86
2021/07/13 11:11:15;;;;;;;;;;;;;;;39.49;20.71;99601.16;5301254;27;32636;-86
2021/07/13 11:13:43;;;;;;;;;;;;;;;39.29;21.08;99589.84;5299664;27;33910;-87
2021/07/13 11:16:11;;;;;;;;;;;;;;;40.11;20.02;99582.44;5299684;27;34299;-86
2021/07/13 11:18:39;;;;;;;;;;;;;;;38.55;21.59;99597.41;5299456;27;34337;-87
2021/07/13 11:21:23;;;;;;;;;;;;;;;38.41;21.70;99582.37;5319390;27;34322;-87
2021/07/13 11:23:55;;;;;;;;;;;;;;;38.56;21.54;99590.91;5299548;27;33266;-86
2021/07/13 11:26:23;;;;;;;;;;;;;;;38.76;21.04;99581.59;5319384;27;34944;-86
2021/07/13 11:28:52;;;;;;;;;;;;;;;39.63;20.19;99574.47;5317671;27;34340;-87
2021/07/13 11:31:19;;;;;;;;;;;;;;;39.72;20.25;99574.91;5299407;27;34760;-87
2021/07/13 11:33:53;;;;;;;;;;;;;;;40.15;19.89;99575.41;5318050;27;33724;-87
2021/07/13 11:36:40;;;;;;;;;;;;;;;39.19;21.38;99574.13;5320234;27;33879;-87
2021/07/13 11:39:11;;;;;;;;;;;;;;;38.79;21.72;99570.22;5318758;27;35182;-86
2021/07/13 11:41:39;;;;;;;;;;;;;;;38.53;21.86;99568.78;5300739;27;33826;-87
2021/07/13 11:44:08;;;;;;;;;;;;;;;38.49;22.02;99560.25;5300825;27;34242;-86
2021/07/13 11:46:36;;;;;;;;;;;;;;;39.29;21.44;99562.59;5299362;27;35894;-87
2021/07/13 11:49:05;;;;;;;;;;;;;;;39.17;21.16;99560.75;5300505;27;34145;-86
2021/07/13 11:51:33;;;;;;;;;;;;;;;39.33;21.00;99556.44;5300101;27;32440;-87
2021/07/13 11:54:05;;;;;;;;;;;;;;;38.80;21.74;99554.72;5300748;27;33878;-86
2021/07/13 11:56:33;;;;;;;;;;;;;;;39.26;20.93;99542.09;5281770;27;33489;-87
2021/07/13 11:59:00;;;;;;;;;;;;;;;38.65;21.89;99522.50;5318553;27;34421;-87
2021/07/13 12:01:28;;;;;;;;;;;;;;;38.23;22.45;99526.97;5300273;27;33882;-86
2021/07/13 12:04:00;;;;;;;;;;;;;;;38.52;22.29;99520.84;5300200;27;33122;-87
2021/07/13 12:06:27;;;;;;;;;;;;;;;39.22;21.31;99530.03;5300320;27;34944;-86
2021/07/13 12:08:55;;;;;;;;;;;;;;;39.01;21.69;99545.09;5318871;27;34564;-86
2021/07/13 12:11:24;;;;;;;;;;;;;;;39.04;21.40;99522.84;5281928;27;35031;-86
2021/07/13 12:13:52;;;;;;;;;;;;;;;39.14;20.99;99517.59;5301003;27;33712;-87
2021/07/13 12:16:22;;;;;;;;;;;;;;;39.08;21.10;99524.03;5283124;27;34477;-89
2021/07/13 12:18:51;;;;;;;;;;;;;;;39.09;21.09;99521.06;5300632;27;34616;-87
2021/07/13 12:21:18;;;;;;;;;;;;;;;38.98;21.37;99523.81;5282382;27;35443;-87
2021/07/13 12:23:56;;;;;;;;;;;;;;;39.36;21.00;99531.41;5301824;27;33744;-87
2021/07/13 12:26:24;;;;;;;;;;;;;;;39.95;20.40;99515.88;5300192;27;35117;-88
2021/07/13 12:29:05;;;;;;;;;;;;;;;40.20;20.03;99507.31;5318275;27;35455;-87
2021/07/13 12:31:36;;;;;;;;;;;;;;;40.65;19.60;99513.69;5300298;27;35175;-86
2021/07/13 12:34:05;;;;;;;;;;;;;;;40.77;19.68;99522.63;5300182;27;32554;-87
2021/07/13 12:36:34;;;;;;;;;;;;;;;40.22;19.96;99516.06;5281318;27;33111;-88
2021/07/13 12:39:21;;;;;;;;;;;;;;;40.61;19.49;99518.84;5300009;27;35460;-87
2021/07/13 12:42:07;;;;;;;;;;;;;;;40.17;19.77;99507.78;5281694;27;35614;-87
2021/07/13 12:44:36;;;;;;;;;;;;;;;41.53;18.42;99507.44;5281606;27;32623;-87
2021/07/13 12:47:12;;;;;;;;;;;;;;;41.30;18.71;99509.38;5299889;27;34354;-88
2021/07/13 12:49:40;;;;;;;;;;;;;;;40.54;19.50;99507.28;5320208;27;34680;-87
2021/07/13 12:52:12;;;;;;;;;;;;;;;39.92;19.82;99500.81;5318569;27;34077;-86
2021/07/13 12:54:58;;;;;;;;;;;;;;;40.26;19.27;99495.38;5318497;27;32977;-86
2021/07/13 12:57:26;;;;;;;;;;;;;;;40.50;19.21;99506.09;5300044;27;34027;-86
2021/07/13 13:00:13;;;;;;;;;;;;;;;40.08;18.93;99496.47;5299043;26;35142;-86
2021/07/13 13:02:41;;;;;;;;;;;;;;;39.81;19.46;99499.00;5281286;27;33603;-87